Penndel, Pennsylvania
Current Conditions -  °F | °C
As of 7:54 AM on Thursday 30 Oct 2014 (Local Time) from KPNE Reporting Station
Clear Clear  
Wind Chill: 42°   Ceiling: Unl
Heat Index: 46°   Visibility: 8mi
Dew Point: 41°   Wind: 7mph
Humidity: 83%   Direction: 310°NW
Pressure: 30.02"   Gusts: NA
Location:  40.1816°N, 74.9144°W
Report Text: KPNE 301154Z 31006KT 8SM CLR 08/05 A3002 RMK AO2 SLP165 70002 T00780050 10089 20067 53013 $
Loading
Personal Weather Stations






























Interactive Weather Map
Tropical Storm Tracking
New forecast layout! Learn more

10-Day Weather Forecast

Advertisements
Track Severe Weather on mobile